createdAt,value
2019-06-10T00:02:43.851Z,49.57
2019-06-10T00:06:26.526Z,48.82
2019-06-10T00:10:04.003Z,49.47
2019-06-10T00:13:46.837Z,50.66
2019-06-10T00:17:22.915Z,50.70
2019-06-10T00:21:06.720Z,50.81
2019-06-10T00:25:05.178Z,51.60
2019-06-10T00:28:47.299Z,52.76
2019-06-10T00:32:22.952Z,53.17
2019-06-10T00:36:07.187Z,52.30
2019-06-10T00:39:51.228Z,53.19
2019-06-10T00:43:33.916Z,53.56
2019-06-10T00:47:14.684Z,53.87
2019-06-10T00:50:53.994Z,53.48
2019-06-10T00:54:31.219Z,54.35
2019-06-10T00:58:07.738Z,53.59
2019-06-10T01:01:43.073Z,54.58
2019-06-10T01:05:25.597Z,55.04
2019-06-10T01:09:01.005Z,55.85
2019-06-10T01:12:45.857Z,55.40
2019-06-10T01:16:21.887Z,56.27
2019-06-10T01:20:05.734Z,55.16
2019-06-10T01:23:47.760Z,56.16
2019-06-10T01:27:31.513Z,57.02
2019-06-10T01:31:28.192Z,57.19
2019-06-10T01:35:11.532Z,57.37
2019-06-10T01:39:09.500Z,57.26
2019-06-10T01:42:52.840Z,58.23
2019-06-10T01:46:28.217Z,58.44
2019-06-10T01:50:04.287Z,59.41
2019-06-10T01:53:47.545Z,58.82
2019-06-10T01:57:23.470Z,59.51
2019-06-10T02:01:25.562Z,60.12
2019-06-10T02:05:01.525Z,60.70
2019-06-10T02:08:38.006Z,60.46
2019-06-10T02:12:24.007Z,59.50
2019-06-10T02:16:04.406Z,59.97
2019-06-10T02:19:46.943Z,60.08
2019-06-10T02:23:23.282Z,60.21
2019-06-10T02:27:05.909Z,60.19
2019-06-10T02:30:50.560Z,60.35
2019-06-10T02:34:27.513Z,59.94
2019-06-10T02:38:33.153Z,60.25
2019-06-10T02:42:30.659Z,61.41
2019-06-10T02:46:31.023Z,61.54
2019-06-10T02:50:10.241Z,61.82
2019-06-10T02:54:07.258Z,61.46
2019-06-10T02:57:44.913Z,61.76
2019-06-10T03:01:23.284Z,61.55
2019-06-10T03:04:57.936Z,61.81
2019-06-10T03:08:36.101Z,61.28
2019-06-10T03:12:17.768Z,61.78
2019-06-10T03:20:12.375Z,61.47
2019-06-10T03:23:53.378Z,61.44
2019-06-10T03:27:35.935Z,60.94
2019-06-10T03:31:15.178Z,61.07
2019-06-10T03:34:55.903Z,61.46
2019-06-10T03:38:32.445Z,62.28
2019-06-10T03:42:16.695Z,61.23
2019-06-10T03:46:13.560Z,62.58
2019-06-10T03:49:56.746Z,62.22
2019-06-10T03:53:33.750Z,62.06
2019-06-10T03:57:09.438Z,64.04
2019-06-10T04:00:44.769Z,64.49
2019-06-10T04:04:28.361Z,63.79
2019-06-10T04:08:12.595Z,63.85
2019-06-10T04:11:55.149Z,64.86
2019-06-10T04:15:32.593Z,65.48
2019-06-10T04:19:15.611Z,64.10
2019-06-10T04:22:52.301Z,65.58
2019-06-10T04:26:34.896Z,64.58
2019-06-10T04:30:12.426Z,64.58
2019-06-10T04:33:54.748Z,64.41
2019-06-10T04:37:32.325Z,65.34
2019-06-10T04:41:14.680Z,66.16
2019-06-10T04:44:52.438Z,65.67
2019-06-10T04:48:36.005Z,66.35
2019-06-10T04:52:12.257Z,65.86
2019-06-10T04:55:48.299Z,65.62
2019-06-10T04:59:26.070Z,65.21
2019-06-10T05:03:28.046Z,65.03
2019-06-10T05:07:12.650Z,64.41
2019-06-10T05:11:14.904Z,63.96
2019-06-10T05:14:52.768Z,63.66
2019-06-10T05:18:36.281Z,62.56
2019-06-10T05:22:12.447Z,62.79
2019-06-10T05:25:56.282Z,62.25
2019-06-10T05:29:52.913Z,61.79
2019-06-10T05:33:35.444Z,62.08
2019-06-10T05:37:13.141Z,60.93
2019-06-10T05:40:55.085Z,62.29
2019-06-10T05:52:33.789Z,62.21
2019-06-10T06:00:23.355Z,62.17
2019-06-10T06:04:08.993Z,60.90
2019-06-10T06:07:44.547Z,61.37
2019-06-10T06:11:36.117Z,61.12
2019-06-10T06:14:59.223Z,61.12
2019-06-10T06:18:36.415Z,60.61
2019-06-10T06:22:13.006Z,60.46
2019-06-10T06:25:55.638Z,62.09
2019-06-10T06:29:33.460Z,62.03
2019-06-10T06:33:15.727Z,60.94
2019-06-10T06:36:52.865Z,60.38
2019-06-10T06:40:37.244Z,59.87
2019-06-10T06:44:35.884Z,59.65
2019-06-10T06:48:39.101Z,59.79
2019-06-10T06:53:07.745Z,58.79
2019-06-10T06:56:18.627Z,56.91
2019-06-10T06:59:54.817Z,58.47
2019-06-10T07:03:38.591Z,57.53
2019-06-10T07:07:36.001Z,57.20
2019-06-10T07:11:22.004Z,54.99
2019-06-10T07:15:27.064Z,55.71
2019-06-10T07:19:10.081Z,54.98
2019-06-10T07:22:46.675Z,53.77
2019-06-10T07:26:29.544Z,53.26
2019-06-10T07:30:11.727Z,53.21
2019-06-10T07:33:52.356Z,52.52
2019-06-10T07:37:48.161Z,51.97
2019-06-10T07:41:32.789Z,53.14
2019-06-10T07:45:27.840Z,52.23
2019-06-10T07:49:13.242Z,50.43
2019-06-10T07:53:08.453Z,51.04
2019-06-10T07:56:49.819Z,50.13
2019-06-10T08:00:22.724Z,49.39
2019-06-10T08:03:58.412Z,49.82
2019-06-10T08:07:43.689Z,48.90
2019-06-10T08:11:25.438Z,48.66
2019-06-10T08:15:08.059Z,49.63
2019-06-10T08:19:09.736Z,50.33
2019-06-10T08:22:33.497Z,48.24
2019-06-10T08:26:25.677Z,49.40
2019-06-10T08:34:32.969Z,48.43
2019-06-10T08:38:08.547Z,45.96
2019-06-10T08:41:47.291Z,47.23
2019-06-10T08:45:28.334Z,46.78
2019-06-10T08:49:04.381Z,46.74
2019-06-10T08:53:03.369Z,47.23
2019-06-10T08:56:47.613Z,47.34
2019-06-10T09:00:45.118Z,49.83
2019-06-10T09:04:25.581Z,47.97
2019-06-10T09:08:02.801Z,48.22
2019-06-10T09:11:49.487Z,49.55
2019-06-10T09:15:29.207Z,48.56
2019-06-10T09:19:13.100Z,47.83
2019-06-10T09:23:21.607Z,47.55
2019-06-10T09:26:54.893Z,46.41
2019-06-10T09:30:57.940Z,46.82
2019-06-10T09:34:35.869Z,46.75
2019-06-10T09:38:14.083Z,47.28
2019-06-10T09:42:02.255Z,43.49
2019-06-10T09:45:56.214Z,44.82
2019-06-10T09:49:37.792Z,42.80
2019-06-10T09:53:26.679Z,43.77
2019-06-10T09:56:57.913Z,43.18
2019-06-10T10:05:05.567Z,42.17
2019-06-10T10:08:45.000Z,41.00
2019-06-10T10:12:25.692Z,40.02
2019-06-10T10:16:02.566Z,40.94
2019-06-10T10:19:48.674Z,39.96
2019-06-10T10:23:58.328Z,38.50
2019-06-10T10:27:28.086Z,39.41
2019-06-10T10:31:25.526Z,38.35
2019-06-10T10:35:08.459Z,38.83
2019-06-10T10:38:44.760Z,36.39
2019-06-10T10:42:41.626Z,37.36
2019-06-10T10:46:25.261Z,37.72
2019-06-10T10:50:07.997Z,40.24
2019-06-10T10:53:46.547Z,36.54
2019-06-10T10:57:27.657Z,35.79
2019-06-10T11:01:04.622Z,36.17
2019-06-10T11:04:48.002Z,36.52
2019-06-10T11:08:46.718Z,37.16
2019-06-10T11:12:29.999Z,36.35
2019-06-10T11:16:05.886Z,36.88
2019-06-10T11:19:49.304Z,37.83
2019-06-10T11:23:36.119Z,35.17
2019-06-10T11:27:18.679Z,36.56
2019-06-10T11:30:56.744Z,35.28
2019-06-10T11:34:38.886Z,35.35
2019-06-10T11:38:14.981Z,35.14
2019-06-10T11:41:52.849Z,34.09
2019-06-10T11:45:29.143Z,33.56
2019-06-10T11:49:04.976Z,35.95
2019-06-10T11:52:47.627Z,35.57
2019-06-10T11:56:23.404Z,36.01
2019-06-10T12:00:13.903Z,36.56
2019-06-10T12:04:04.286Z,37.85
2019-06-10T12:07:46.915Z,36.36
2019-06-10T12:11:23.140Z,36.75
2019-06-10T12:15:06.129Z,36.70
2019-06-10T12:18:42.660Z,38.07
2019-06-10T12:22:25.425Z,32.71
2019-06-10T12:26:03.456Z,32.29
2019-06-10T12:29:45.499Z,36.61
2019-06-10T12:33:24.843Z,35.88
2019-06-10T12:41:15.151Z,37.24
2019-06-10T12:44:53.824Z,35.53
2019-06-10T12:48:35.264Z,37.50
2019-06-10T12:52:12.550Z,38.76
2019-06-10T12:55:55.901Z,38.18
2019-06-10T12:59:52.395Z,37.72
2019-06-10T13:03:35.008Z,36.67
2019-06-10T13:07:12.572Z,40.19
2019-06-10T13:10:55.808Z,40.16
2019-06-10T13:14:53.132Z,39.25
2019-06-10T13:18:36.517Z,39.20
2019-06-10T13:22:33.170Z,39.76
2019-06-10T13:26:17.714Z,41.30
2019-06-10T13:30:13.492Z,39.95
2019-06-10T13:33:56.613Z,39.47
2019-06-10T13:37:53.448Z,39.45
2019-06-10T13:41:36.245Z,40.36
2019-06-10T13:45:12.557Z,38.00
2019-06-10T13:48:55.187Z,40.33
2019-06-10T13:52:32.161Z,39.10
2019-06-10T13:56:38.004Z,38.24
2019-06-10T14:00:14.669Z,38.30
2019-06-10T14:03:58.578Z,38.21
2019-06-10T14:07:55.400Z,36.16
2019-06-10T14:11:37.968Z,33.93
2019-06-10T14:15:17.021Z,32.34
2019-06-10T14:18:58.356Z,32.90
2019-06-10T14:22:34.436Z,30.15
2019-06-10T14:26:18.517Z,28.46
2019-06-10T14:30:15.505Z,30.71
2019-06-10T14:33:59.179Z,29.65
2019-06-10T14:37:39.108Z,27.59
2019-06-10T14:45:16.595Z,34.65
2019-06-10T14:48:58.700Z,37.74
2019-06-10T14:52:34.400Z,40.25
2019-06-10T14:56:19.591Z,40.60
2019-06-10T15:00:16.676Z,39.08
2019-06-10T15:03:59.206Z,37.12
2019-06-10T15:07:34.882Z,39.76
2019-06-10T15:11:18.431Z,38.21
2019-06-10T15:18:45.991Z,38.85
2019-06-10T15:22:28.643Z,40.10
2019-06-10T15:26:04.718Z,42.17
2019-06-10T15:29:47.248Z,41.46
2019-06-10T15:33:25.014Z,43.20
2019-06-10T15:37:02.850Z,44.33
2019-06-10T15:40:38.422Z,45.23
2019-06-10T15:44:18.188Z,46.00
2019-06-10T15:47:58.520Z,46.06
2019-06-10T15:51:34.152Z,45.44
2019-06-10T15:55:38.747Z,44.99
2019-06-10T15:59:04.569Z,44.84
2019-06-10T16:02:47.141Z,46.32
2019-06-10T16:06:23.177Z,45.07
2019-06-10T16:10:06.931Z,46.39
2019-06-10T16:13:43.110Z,45.82
2019-06-10T16:17:26.166Z,46.26
2019-06-10T16:21:04.353Z,47.31
2019-06-10T16:24:46.731Z,47.40
2019-06-10T16:28:24.549Z,48.05
2019-06-10T16:32:06.712Z,48.39
2019-06-10T16:35:42.170Z,50.48
2019-06-10T16:39:26.807Z,52.31
2019-06-10T16:43:09.037Z,52.06
2019-06-10T16:46:52.655Z,53.35
2019-06-10T16:50:49.505Z,52.57
2019-06-10T16:54:33.041Z,52.66
2019-06-10T16:58:30.339Z,53.46
2019-06-10T17:02:12.999Z,53.58
2019-06-10T17:05:48.343Z,54.50
2019-06-10T17:09:26.149Z,50.64
2019-06-10T17:13:03.941Z,50.28
2019-06-10T17:16:47.585Z,51.88
2019-06-10T17:20:25.150Z,53.87
2019-06-10T17:24:03.482Z,57.98
2019-06-10T17:27:46.026Z,54.69
2019-06-10T17:31:25.727Z,52.81
2019-06-10T17:35:06.936Z,51.38
2019-06-10T17:38:44.248Z,52.59
2019-06-10T17:42:30.889Z,50.73
2019-06-10T17:46:12.450Z,52.50
2019-06-10T17:49:55.030Z,51.50
2019-06-10T17:53:32.977Z,51.36
2019-06-10T17:57:14.940Z,52.66
2019-06-10T18:00:52.816Z,51.85
2019-06-10T18:04:34.935Z,51.85
2019-06-10T18:08:10.122Z,53.97
2019-06-10T18:11:46.196Z,52.42
2019-06-10T18:15:24.018Z,53.02
2019-06-10T18:19:09.497Z,54.11
2019-06-10T18:22:46.353Z,54.04
2019-06-10T18:26:23.168Z,57.24
2019-06-10T18:34:29.898Z,55.73
2019-06-10T18:38:12.775Z,55.89
2019-06-10T18:41:55.858Z,55.37
2019-06-10T18:45:39.184Z,56.73
2019-06-10T18:49:37.433Z,56.80
2019-06-10T18:53:20.103Z,56.70
2019-06-10T18:57:02.938Z,58.33
2019-06-10T19:01:34.375Z,58.88
2019-06-10T19:09:06.302Z,58.94
2019-06-10T19:12:42.608Z,58.47
2019-06-10T19:16:25.195Z,59.58
2019-06-10T19:20:03.745Z,60.87
2019-06-10T19:23:45.723Z,61.14
2019-06-10T19:27:23.702Z,63.65
2019-06-10T19:31:06.084Z,62.39
2019-06-10T19:34:48.030Z,60.88
2019-06-10T19:38:27.166Z,60.40
2019-06-10T19:42:02.922Z,60.99
2019-06-10T19:47:07.063Z,62.17
2019-06-10T19:51:54.258Z,63.12
2019-06-10T19:55:25.265Z,64.03
2019-06-10T19:58:48.403Z,65.86
2019-06-10T20:02:13.147Z,67.57
2019-06-10T20:05:36.414Z,66.34
2019-06-10T20:08:59.946Z,67.26
2019-06-10T20:12:23.123Z,66.60
2019-06-10T20:16:33.636Z,67.84
2019-06-10T20:20:16.655Z,67.79
2019-06-10T20:24:15.941Z,67.48
2019-06-10T20:28:33.245Z,68.09
2019-06-10T20:32:08.511Z,69.16
2019-06-10T20:35:51.020Z,68.78
2019-06-10T20:39:29.224Z,69.79
2019-06-10T20:43:03.693Z,70.12
2019-06-10T20:46:47.736Z,69.63
2019-06-10T20:50:33.852Z,69.96
2019-06-10T20:54:16.674Z,71.08
2019-06-10T20:58:02.951Z,70.06
2019-06-10T21:01:38.828Z,69.45
2019-06-10T21:05:14.433Z,70.20
2019-06-10T21:08:51.216Z,70.62
2019-06-10T21:12:34.519Z,70.28
2019-06-10T21:16:12.646Z,70.76
2019-06-10T21:19:49.181Z,71.95
2019-06-10T21:23:32.741Z,72.27
2019-06-10T21:27:08.177Z,72.90
2019-06-10T21:30:49.594Z,72.94
2019-06-10T21:34:22.476Z,73.65
2019-06-10T21:38:05.100Z,72.51
2019-06-10T21:41:42.578Z,72.97
2019-06-10T21:45:22.734Z,74.30
2019-06-10T21:49:07.105Z,75.03
2019-06-10T21:52:45.774Z,74.40
2019-06-10T21:56:22.486Z,74.83
2019-06-10T22:04:07.245Z,74.59
2019-06-10T22:07:43.830Z,75.55
2019-06-10T22:11:19.555Z,76.04
2019-06-10T22:15:02.157Z,75.89
2019-06-10T22:18:38.356Z,75.36
2019-06-10T22:22:36.247Z,75.26
2019-06-10T22:26:19.119Z,75.55
2019-06-10T22:29:57.015Z,76.53
2019-06-10T22:33:43.155Z,76.08
2019-06-10T22:37:29.723Z,76.29
2019-06-10T22:41:12.400Z,76.76
2019-06-10T22:44:47.737Z,75.43
2019-06-10T22:48:33.273Z,75.14
2019-06-10T22:52:28.134Z,75.64
2019-06-10T22:56:13.108Z,76.89
2019-06-10T22:59:48.821Z,75.93
2019-06-10T23:03:31.369Z,77.37
2019-06-10T23:07:06.661Z,78.58
2019-06-10T23:10:50.593Z,77.92
2019-06-10T23:14:36.517Z,80.02
2019-06-10T23:18:19.050Z,77.49
2019-06-10T23:21:55.710Z,76.79
2019-06-10T23:25:38.698Z,75.77
2019-06-10T23:29:14.210Z,75.45
2019-06-10T23:32:58.141Z,74.52
2019-06-10T23:36:43.167Z,75.00
2019-06-10T23:40:36.194Z,74.14
2019-06-10T23:44:12.340Z,74.40
2019-06-10T23:47:56.538Z,73.93
2019-06-10T23:51:38.262Z,74.01
2019-06-10T23:55:22.714Z,74.16
2019-06-10T23:59:18.479Z,72.70
